Time;durP1;ratioP1;P1;durP2;ratioP2;P2;SDS_P1;SDS_P2;PMS_P1;PMS_P2;Temp;Humidity;BMP_temperature;BMP_pressure;BME280_temperature;BME280_humidity;BME280_pressure;Samples;Min_cycle;Max_cycle;Signal;HPM_P1;HPM_P2
2023/01/28 00:00:52;;;;;;;15.57;14.11;;;;;;;-3.25;63.36;101260.38;462960;113;930238;-69
2023/01/28 00:01:56;;;;;;;16.01;14.54;;;;;;;-3.26;63.27;101256.86;462779;114;922527;-70
2023/01/28 00:02:59;;;;;;;14.08;12.99;;;;;;;-3.27;63.22;101257.81;462857;114;922561;-69
2023/01/28 00:04:02;;;;;;;14.97;13.76;;;;;;;-3.26;63.23;101256.00;462848;114;922480;-69
2023/01/28 00:05:06;;;;;;;14.29;13.12;;;;;;;-3.27;63.37;101259.63;466155;113;922605;-71
2023/01/28 00:06:12;;;;;;;13.99;12.75;;;;;;;-3.27;63.31;101259.63;462735;114;930248;-69
2023/01/28 00:07:16;;;;;;;15.21;13.92;;;;;;;-3.28;63.22;101263.25;462307;114;922575;-70
2023/01/28 00:08:19;;;;;;;14.44;13.23;;;;;;;-3.28;63.27;101268.58;462366;114;922761;-69
2023/01/28 00:09:22;;;;;;;14.16;12.97;;;;;;;-3.30;63.12;101259.83;462548;112;922925;-70
2023/01/28 00:10:25;;;;;;;13.27;12.14;;;;;;;-3.35;63.00;101270.83;463737;112;922514;-70
2023/01/28 00:11:28;;;;;;;13.93;12.79;;;;;;;-3.40;62.92;101263.16;464500;112;922508;-70
2023/01/28 00:12:31;;;;;;;13.19;12.11;;;;;;;-3.44;62.81;101267.02;462594;114;922637;-70
2023/01/28 00:13:35;;;;;;;13.78;12.76;;;;;;;-3.48;62.77;101270.01;462823;114;923747;-69
2023/01/28 00:14:38;;;;;;;14.19;13.09;;;;;;;-3.52;62.84;101263.17;463859;112;922490;-70
2023/01/28 00:15:41;;;;;;;13.98;12.63;;;;;;;-3.55;62.83;101266.06;469399;111;922596;-68
2023/01/28 00:16:45;;;;;;;13.68;12.43;;;;;;;-3.56;62.96;101261.69;463740;114;930327;-70
2023/01/28 00:17:48;;;;;;;12.96;11.94;;;;;;;-3.57;63.06;101266.16;462387;114;922485;-70
2023/01/28 00:18:51;;;;;;;13.17;12.02;;;;;;;-3.57;63.24;101258.16;463211;112;922536;-69
2023/01/28 00:19:54;;;;;;;13.20;12.22;;;;;;;-3.56;63.30;101261.69;465811;112;922509;-70
2023/01/28 00:21:00;;;;;;;13.39;12.39;;;;;;;-3.57;63.22;101263.49;462585;112;925423;-70
2023/01/28 00:22:03;;;;;;;13.14;11.99;;;;;;;-3.58;63.27;101263.59;458841;114;922624;-69
2023/01/28 00:23:07;;;;;;;13.06;11.90;;;;;;;-3.60;63.40;101265.53;462330;114;922483;-70
2023/01/28 00:24:10;;;;;;;13.39;11.87;;;;;;;-3.60;63.42;101261.06;462362;114;923010;-70
2023/01/28 00:25:13;;;;;;;12.81;11.74;;;;;;;-3.59;63.44;101261.92;462916;112;923278;-70
2023/01/28 00:26:17;;;;;;;12.43;11.49;;;;;;;-3.59;63.51;101252.11;462615;111;922563;-68
2023/01/28 00:27:38;;;;;;;12.46;11.41;;;;;;;-3.58;63.53;101266.26;462274;114;922625;-72
2023/01/28 00:28:42;;;;;;;12.58;11.45;;;;;;;-3.58;63.44;101251.13;464852;112;922470;-70
2023/01/28 00:29:45;;;;;;;12.27;11.13;;;;;;;-3.57;63.57;101250.17;464673;112;922596;-70
2023/01/28 00:30:48;;;;;;;12.96;11.73;;;;;;;-3.55;63.57;101247.41;468028;112;930342;-69
2023/01/28 00:31:51;;;;;;;13.68;12.42;;;;;;;-3.54;63.55;101249.97;462564;111;922480;-71
2023/01/28 00:32:55;;;;;;;13.66;12.38;;;;;;;-3.54;63.57;101246.45;463158;114;922480;-70
2023/01/28 00:33:58;;;;;;;13.61;12.46;;;;;;;-3.52;63.53;101242.70;452921;117;922617;-71
2023/01/28 00:35:01;;;;;;;13.34;12.20;;;;;;;-3.50;63.43;101247.93;452509;117;922647;-70
2023/01/28 00:36:05;;;;;;;13.49;12.26;;;;;;;-3.49;63.42;101244.31;450718;117;922596;-71
2023/01/28 00:37:08;;;;;;;12.27;11.27;;;;;;;-3.48;63.34;101244.20;450705;117;922976;-70
2023/01/28 00:38:11;;;;;;;11.71;10.74;;;;;;;-3.47;63.42;101245.89;452865;117;922583;-69
2023/01/28 00:39:15;;;;;;;12.87;11.85;;;;;;;-3.47;63.27;101237.89;448325;117;922674;-70
2023/01/28 00:40:18;;;;;;;12.16;11.18;;;;;;;-3.45;63.24;101243.98;446523;118;922845;-69
2023/01/28 00:41:23;;;;;;;12.58;11.48;;;;;;;-3.45;63.28;101246.64;446473;117;922511;-69
2023/01/28 00:42:27;;;;;;;11.51;10.54;;;;;;;-3.44;63.25;101248.35;446237;119;922921;-71
2023/01/28 00:43:31;;;;;;;11.98;11.02;;;;;;;-3.43;63.15;101251.88;446422;117;922632;-69
2023/01/28 00:44:35;;;;;;;11.08;10.07;;;;;;;-3.41;63.08;101247.27;446858;117;922559;-70
2023/01/28 00:45:38;;;;;;;12.68;11.41;;;;;;;-3.41;63.16;101250.78;446739;117;922966;-69
2023/01/28 00:46:41;;;;;;;10.93;10.06;;;;;;;-3.41;63.01;101247.27;446230;118;922861;-69
2023/01/28 00:47:45;;;;;;;11.91;10.96;;;;;;;-3.39;62.99;101240.87;452675;117;922894;-69
2023/01/28 00:48:48;;;;;;;11.73;10.83;;;;;;;-3.39;63.01;101232.88;442518;117;922845;-69
2023/01/28 00:49:51;;;;;;;12.14;11.15;;;;;;;-3.38;62.93;101231.92;447955;117;923081;-70
2023/01/28 00:50:55;;;;;;;10.84;10.01;;;;;;;-3.37;62.98;101227.45;447366;118;922781;-70
2023/01/28 00:51:58;;;;;;;12.32;11.29;;;;;;;-3.36;62.87;101227.31;448947;117;922811;-70
2023/01/28 00:53:02;;;;;;;11.41;10.44;;;;;;;-3.35;62.81;101225.50;448272;117;922928;-69
2023/01/28 00:54:05;;;;;;;11.97;10.99;;;;;;;-3.34;62.83;101229.02;446494;119;922831;-69
2023/01/28 00:55:09;;;;;;;12.23;11.19;;;;;;;-3.33;62.92;101236.92;446657;117;922680;-70
2023/01/28 00:56:14;;;;;;;12.28;11.29;;;;;;;-3.32;62.77;101235.96;446242;119;930319;-70
2023/01/28 00:57:18;;;;;;;11.69;10.75;;;;;;;-3.32;62.78;101237.77;449808;117;930460;-70
2023/01/28 00:58:23;;;;;;;12.61;10.94;;;;;;;-3.31;62.67;101232.34;447510;117;922699;-69
2023/01/28 00:59:26;;;;;;;11.88;10.91;;;;;;;-3.32;62.78;101235.96;446630;117;923120;-70
2023/01/28 01:00:30;;;;;;;10.91;10.11;;;;;;;-3.30;62.77;101235.83;446261;118;922943;-70
2023/01/28 01:01:33;;;;;;;11.14;10.14;;;;;;;-3.29;62.63;101238.39;446362;119;922650;-71
2023/01/28 01:02:36;;;;;;;11.23;10.33;;;;;;;-3.29;62.57;101230.39;446284;118;922999;-70
2023/01/28 01:03:40;;;;;;;11.28;10.38;;;;;;;-3.28;62.67;101231.25;446252;119;930529;-70
2023/01/28 01:04:53;;;;;;;11.53;10.57;;;;;;;-3.28;62.50;101226.77;446857;117;922488;-70
2023/01/28 01:05:49;;;;;;;10.79;9.88;;;;;;;-3.27;62.50;101224.96;445293;119;922683;-69
2023/01/28 01:06:52;;;;;;;11.37;10.41;;;;;;;-3.28;62.50;101229.44;446383;117;922935;-71
2023/01/28 01:07:55;;;;;;;10.56;9.68;;;;;;;-3.27;62.41;101219.63;453845;117;930082;-70
2023/01/28 01:08:59;;;;;;;11.55;10.50;;;;;;;-3.28;62.40;101218.77;445372;117;922729;-71
2023/01/28 01:10:02;;;;;;;10.96;9.98;;;;;;;-3.29;62.41;101217.06;462797;112;922562;-69
2023/01/28 01:11:06;;;;;;;11.97;10.55;;;;;;;-3.29;62.31;101214.40;469033;112;930560;-70
2023/01/28 01:12:10;;;;;;;11.11;10.21;;;;;;;-3.28;62.38;101209.92;473271;112;922873;-69
2023/01/28 01:13:13;;;;;;;12.97;11.84;;;;;;;-3.28;62.23;101217.92;471475;112;930007;-70
2023/01/28 01:14:16;;;;;;;12.30;11.46;;;;;;;-3.30;62.18;101210.02;472445;112;923017;-69
2023/01/28 01:15:19;;;;;;;13.13;11.69;;;;;;;-3.30;62.14;101214.50;472600;112;923023;-70
2023/01/28 01:16:25;;;;;;;13.93;12.86;;;;;;;-3.32;62.09;101211.97;473922;112;922570;-70
2023/01/28 01:17:31;;;;;;;13.96;11.88;;;;;;;-3.33;62.14;101218.26;465321;114;922518;-70
2023/01/28 01:18:35;;;;;;;13.64;12.59;;;;;;;-3.34;61.96;101215.69;466891;112;923188;-69
2023/01/28 01:19:38;;;;;;;12.92;11.78;;;;;;;-3.36;62.04;101219.31;469047;112;922461;-68
2023/01/28 01:20:48;;;;;;;13.96;12.76;;;;;;;-3.37;61.99;101222.97;470520;112;922525;-69
2023/01/28 01:21:49;;;;;;;12.92;11.96;;;;;;;-3.37;61.88;101220.30;464791;112;922613;-68
2023/01/28 01:22:52;;;;;;;12.93;11.82;;;;;;;-3.38;61.91;101221.26;466019;112;922778;-69
2023/01/28 01:23:55;;;;;;;12.46;11.16;;;;;;;-3.37;61.91;101211.45;465507;114;922808;-69
2023/01/28 01:24:58;;;;;;;10.61;9.84;;;;;;;-3.40;61.92;101217.84;467445;112;923068;-70
2023/01/28 01:26:03;;;;;;;11.51;10.64;;;;;;;-3.39;61.96;101211.55;465594;114;922527;-69
2023/01/28 01:27:06;;;;;;;11.48;10.59;;;;;;;-3.39;61.92;101211.55;469538;112;922636;-68
2023/01/28 01:28:09;;;;;;;10.36;9.41;;;;;;;-3.40;61.98;101208.98;465495;114;922581;-70
2023/01/28 01:29:13;;;;;;;11.03;10.11;;;;;;;-3.44;61.85;101205.70;465809;112;922617;-70
2023/01/28 01:30:16;;;;;;;10.62;9.82;;;;;;;-3.44;61.94;101202.18;471715;112;923018;-69
2023/01/28 01:31:21;;;;;;;11.34;9.70;;;;;;;-3.45;61.91;101208.47;473857;112;930488;-70
2023/01/28 01:32:29;;;;;;;10.75;9.95;;;;;;;-3.47;61.93;101202.38;464957;114;930579;-69
2023/01/28 01:33:33;;;;;;;11.04;10.20;;;;;;;-3.48;62.01;101211.37;464530;112;922850;-70
2023/01/28 01:34:36;;;;;;;11.46;10.45;;;;;;;-3.50;62.00;101203.47;465946;112;922523;-70
2023/01/28 01:35:39;;;;;;;10.99;10.09;;;;;;;-3.52;61.88;101208.05;465521;114;922541;-69
2023/01/28 01:36:42;;;;;;;11.71;10.55;;;;;;;-3.52;61.99;101210.72;466222;111;922665;-70
2023/01/28 01:37:46;;;;;;;10.72;9.93;;;;;;;-3.52;62.07;101209.86;465536;114;922486;-69
2023/01/28 01:38:53;;;;;;;11.83;10.91;;;;;;;-3.52;62.11;101209.86;465964;112;922640;-69
2023/01/28 01:39:57;;;;;;;14.12;12.65;;;;;;;-3.52;62.12;101209.86;469072;112;922868;-69
2023/01/28 01:41:00;;;;;;;13.61;12.26;;;;;;;-3.51;62.16;101204.42;470752;112;922877;-69
2023/01/28 01:42:04;;;;;;;14.87;13.64;;;;;;;-3.49;62.09;101206.99;465432;114;922613;-70
2023/01/28 01:43:20;;;;;;;14.41;12.34;;;;;;;-3.50;62.13;101197.28;465365;112;922503;-69
2023/01/28 01:45:00;;;;;;;13.42;12.37;;;;;;;-3.51;62.04;101200.91;465448;112;930315;-70
2023/01/28 01:46:03;;;;;;;12.69;11.66;;;;;;;-3.54;62.03;101193.14;464820;114;922710;-69
2023/01/28 01:47:08;;;;;;;10.98;10.12;;;;;;;-3.58;62.03;101197.82;467239;112;930300;-69
2023/01/28 01:48:21;;;;;;;11.46;10.48;;;;;;;-3.61;62.17;101197.20;465390;114;923092;-70
2023/01/28 01:49:27;;;;;;;11.20;10.26;;;;;;;-3.65;62.22;101198.38;469064;112;922531;-70
2023/01/28 01:50:37;;;;;;;10.52;9.67;;;;;;;-3.70;62.29;101200.53;465310;114;922407;-69
2023/01/28 01:51:41;;;;;;;9.91;9.16;;;;;;;-3.72;62.27;101205.10;465346;114;923078;-69
2023/01/28 01:52:47;;;;;;;9.56;8.79;;;;;;;-3.74;62.38;101202.53;470269;112;922503;-70
2023/01/28 01:53:53;;;;;;;9.26;8.56;;;;;;;-3.74;62.48;101204.34;471718;111;923182;-69
2023/01/28 01:54:59;;;;;;;10.17;9.37;;;;;;;-3.74;62.50;101199.02;469204;112;922548;-69
2023/01/28 01:56:06;;;;;;;8.78;8.11;;;;;;;-3.75;62.47;101206.19;465333;114;923001;-69
2023/01/28 01:57:13;;;;;;;9.98;9.07;;;;;;;-3.76;62.48;101200.95;465323;111;922459;-69
2023/01/28 01:58:20;;;;;;;9.31;8.41;;;;;;;-3.77;62.43;101199.25;473324;111;922596;-70
2023/01/28 01:59:26;;;;;;;9.27;8.67;;;;;;;-3.76;62.51;101195.63;465327;114;922555;-69
2023/01/28 02:00:30;;;;;;;10.12;9.34;;;;;;;-3.75;62.63;101197.34;465455;112;922513;-69
2023/01/28 02:01:33;;;;;;;8.95;8.14;;;;;;;-3.75;62.57;101208.85;465530;114;922553;-69
2023/01/28 02:02:41;;;;;;;9.74;8.47;;;;;;;-3.76;62.53;101207.14;465386;114;922580;-71
2023/01/28 02:04:06;;;;;;;8.99;8.06;;;;;;;-3.76;62.68;101200.95;468340;112;923744;-70
2023/01/28 02:05:11;;;;;;;9.14;8.43;;;;;;;-3.74;62.73;101204.34;468196;112;923086;-69
2023/01/28 02:06:15;;;;;;;8.94;8.24;;;;;;;-3.73;62.89;101204.25;463059;114;922469;-71
2023/01/28 02:07:19;;;;;;;8.62;7.87;;;;;;;-3.71;62.92;101206.81;473842;112;922522;-69
2023/01/28 02:08:22;;;;;;;9.63;8.75;;;;;;;-3.68;62.83;101203.91;465988;112;922520;-69
2023/01/28 02:09:28;;;;;;;8.98;8.28;;;;;;;-3.66;63.02;101207.34;465516;112;923100;-71
2023/01/28 02:10:32;;;;;;;8.67;8.04;;;;;;;-3.64;62.96;101206.28;465400;114;922663;-70
2023/01/28 02:11:35;;;;;;;8.47;7.87;;;;;;;-3.62;63.07;101207.00;465483;114;922995;-70
2023/01/28 02:12:45;;;;;;;9.18;8.44;;;;;;;-3.60;62.95;101206.91;465402;112;922550;-69
2023/01/28 02:13:52;;;;;;;8.16;7.47;;;;;;;-3.60;63.02;101202.43;465634;113;923711;-69
2023/01/28 02:15:05;;;;;;;8.59;7.93;;;;;;;-3.57;63.13;101204.00;469102;112;922515;-71
2023/01/28 02:16:11;;;;;;;9.14;8.27;;;;;;;-3.52;63.18;101204.53;473743;112;923226;-69
2023/01/28 02:17:15;;;;;;;9.21;8.48;;;;;;;-3.48;63.31;101198.89;466037;112;922560;-69
2023/01/28 02:18:18;;;;;;;8.54;7.94;;;;;;;-3.43;63.33;101193.22;466015;112;922673;-69
2023/01/28 02:19:25;;;;;;;9.29;8.59;;;;;;;-3.40;63.34;101192.99;465523;114;922386;-72
2023/01/28 02:20:35;;;;;;;9.83;9.02;;;;;;;-3.35;63.24;101190.84;472934;111;922454;-69
2023/01/28 02:21:57;;;;;;;9.37;8.52;;;;;;;-3.30;63.27;101185.17;455266;112;922728;-70
2023/01/28 02:23:15;;;;;;;8.89;8.22;;;;;;;-3.27;63.35;101191.16;466464;112;922502;-71
2023/01/28 02:24:38;;;;;;;8.70;8.05;;;;;;;-3.22;63.40;101186.33;458264;114;922634;-70
2023/01/28 02:26:03;;;;;;;8.82;8.02;;;;;;;-3.19;63.30;101191.42;458786;114;922561;-70
2023/01/28 02:27:24;;;;;;;8.59;7.89;;;;;;;-3.16;63.36;101193.03;473701;112;922817;-69
2023/01/28 02:28:53;;;;;;;9.06;8.02;;;;;;;-3.16;63.31;101185.89;470947;112;922591;-69
2023/01/28 02:30:09;;;;;;;8.62;7.92;;;;;;;-3.14;63.28;101197.27;470364;112;923099;-70
2023/01/28 02:31:28;;;;;;;9.17;8.37;;;;;;;-3.13;63.27;101196.31;466252;112;922493;-70
2023/01/28 02:32:47;;;;;;;8.99;8.32;;;;;;;-3.11;63.35;101196.21;467911;112;922861;-69
2023/01/28 02:34:11;;;;;;;7.75;7.18;;;;;;;-3.08;63.50;101187.97;465101;114;922433;-69
2023/01/28 02:35:19;;;;;;;9.51;8.78;;;;;;;-3.04;63.39;101178.80;466090;112;922609;-68
2023/01/28 02:36:42;;;;;;;8.75;7.98;;;;;;;-3.02;63.43;101183.05;464648;114;922936;-68
2023/01/28 02:38:04;;;;;;;8.37;7.75;;;;;;;-2.98;63.43;101181.84;463472;114;922962;-70
2023/01/28 02:39:11;;;;;;;8.54;7.87;;;;;;;-2.92;63.44;101188.54;458497;114;922667;-69
2023/01/28 02:40:18;;;;;;;8.63;7.93;;;;;;;-2.90;63.35;101181.28;470882;112;922525;-71
2023/01/28 02:41:31;;;;;;;8.02;7.42;;;;;;;-2.86;63.46;101182.75;465192;114;922497;-70
2023/01/28 02:42:37;;;;;;;8.51;7.82;;;;;;;-2.82;63.31;101186.06;467070;112;922563;-70
2023/01/28 02:43:45;;;;;;;9.22;8.37;;;;;;;-2.80;63.30;101182.30;467116;112;922580;-70
2023/01/28 02:44:48;;;;;;;9.62;8.46;;;;;;;-2.76;63.26;101180.27;465755;112;922450;-69
2023/01/28 02:48:37;;;;;;;9.34;8.59;;;;;;;-2.68;63.16;101170.70;465283;114;923348;-70
2023/01/28 02:49:44;;;;;;;9.44;8.71;;;;;;;-2.68;63.05;101173.38;468602;112;922457;-70
2023/01/28 02:51:06;;;;;;;9.33;8.54;;;;;;;-2.68;62.99;101168.04;466759;112;922553;-70
2023/01/28 02:53:39;;;;;;;9.49;8.83;;;;;;;-2.68;63.08;101162.70;465447;112;923420;-71
2023/01/28 02:53:39;;;;;;;8.91;8.24;;;;;;;-2.66;63.15;101157.25;439468;119;923144;-69
2023/01/28 02:54:55;;;;;;;8.87;8.23;;;;;;;-2.64;63.13;101153.48;467801;112;922519;-69
2023/01/28 02:56:02;;;;;;;9.61;8.77;;;;;;;-2.62;63.17;101154.23;466517;112;922512;-70
2023/01/28 02:57:21;;;;;;;9.28;8.50;;;;;;;-2.61;63.04;101155.94;465326;114;922491;-69
2023/01/28 02:58:33;;;;;;;9.73;8.57;;;;;;;-2.59;63.07;101151.31;464165;114;922523;-70
2023/01/28 02:59:43;;;;;;;9.23;8.46;;;;;;;-2.59;63.02;101148.64;466304;112;922953;-69
2023/01/28 03:01:11;;;;;;;9.46;8.67;;;;;;;-2.56;63.10;101142.23;468788;112;922618;-69
2023/01/28 03:02:43;;;;;;;9.16;8.46;;;;;;;-2.55;63.03;101139.46;465349;113;922538;-70
2023/01/28 03:03:53;;;;;;;8.63;7.99;;;;;;;-2.53;63.00;101134.83;465149;114;922600;-70
2023/01/28 03:05:21;;;;;;;9.21;8.47;;;;;;;-2.51;63.13;101134.72;468307;112;922462;-69
2023/01/28 03:06:27;;;;;;;9.35;8.58;;;;;;;-2.50;63.14;101128.42;473757;112;922476;-69
2023/01/28 03:07:34;;;;;;;9.73;8.74;;;;;;;-2.48;63.17;101137.14;470944;112;922511;-69
2023/01/28 03:10:15;;;;;;;9.01;8.21;;;;;;;-2.46;63.06;101131.70;466321;113;923235;-69
2023/01/28 03:36:55;;;;;;;9.50;8.48;;;;;;;-2.50;63.30;101146.26;460702;115;922564;-70
2023/01/28 03:38:22;;;;;;;10.42;9.04;;;;;;;-2.49;63.28;101159.50;464567;113;922521;-69
2023/01/28 03:39:28;;;;;;;10.51;9.23;;;;;;;-2.49;63.26;101156.83;465236;113;922890;-69
2023/01/28 03:40:32;;;;;;;9.87;9.07;;;;;;;-2.50;63.37;101160.46;460681;115;922997;-69
2023/01/28 03:41:36;;;;;;;8.97;8.13;;;;;;;-2.49;63.45;101164.84;460855;114;923251;-69
2023/01/28 03:42:39;;;;;;;9.78;8.93;;;;;;;-2.45;63.45;101155.61;461128;113;922481;-69
2023/01/28 03:43:48;;;;;;;9.54;8.75;;;;;;;-2.43;63.27;101167.05;463447;114;922557;-70
2023/01/28 03:44:52;;;;;;;8.87;7.95;;;;;;;-2.39;63.31;101171.17;465032;113;922473;-69
2023/01/28 03:45:56;;;;;;;9.41;8.22;;;;;;;-2.37;63.41;101161.20;465682;114;922908;-69
2023/01/28 03:46:59;;;;;;;9.62;8.72;;;;;;;-2.33;63.37;101157.35;465512;114;930442;-70
2023/01/28 03:48:02;;;;;;;9.88;9.03;;;;;;;-2.30;63.29;101157.09;465670;114;930499;-68
2023/01/28 03:49:05;;;;;;;9.96;9.11;;;;;;;-2.26;63.25;101166.56;460398;113;922469;-70
2023/01/28 03:50:09;;;;;;;10.67;9.61;;;;;;;-2.24;63.22;101164.64;465439;113;922848;-69
2023/01/28 03:51:15;;;;;;;9.68;8.88;;;;;;;-2.22;63.12;101168.05;461080;113;922593;-69
2023/01/28 03:52:21;;;;;;;10.52;9.57;;;;;;;-2.19;63.10;101166.95;460896;113;922639;-70
2023/01/28 03:53:24;;;;;;;10.02;8.81;;;;;;;-2.16;63.14;101164.06;467583;113;922619;-69
2023/01/28 03:54:27;;;;;;;9.05;8.23;;;;;;;-2.14;63.07;101156.75;461800;113;922910;-70
2023/01/28 03:55:31;;;;;;;9.00;8.21;;;;;;;-2.13;63.01;101153.97;459215;115;922594;-70
2023/01/28 03:56:39;;;;;;;9.91;9.03;;;;;;;-2.11;63.14;101151.19;460145;113;930532;-70
2023/01/28 03:57:43;;;;;;;10.32;9.41;;;;;;;-2.08;62.98;101152.76;465172;113;922728;-68
2023/01/28 03:58:55;;;;;;;11.50;10.41;;;;;;;-2.08;63.00;101158.95;460663;113;922536;-70
2023/01/28 03:59:59;;;;;;;9.71;8.89;;;;;;;-2.07;63.02;101157.98;464560;113;922810;-68
2023/01/28 04:01:02;;;;;;;10.78;9.75;;;;;;;-2.06;62.89;101161.52;468385;113;922433;-70
2023/01/28 04:02:06;;;;;;;9.77;8.75;;;;;;;-2.06;63.01;101151.68;469122;113;922625;-70
2023/01/28 04:03:15;;;;;;;10.54;9.21;;;;;;;-2.05;63.04;101158.73;461829;113;922837;-67
2023/01/28 04:04:23;;;;;;;9.57;8.62;;;;;;;-2.03;63.06;101155.92;462532;114;922476;-70
2023/01/28 04:05:27;;;;;;;10.80;9.62;;;;;;;-2.01;63.00;101151.31;462542;113;923046;-69
2023/01/28 04:06:31;;;;;;;10.00;8.95;;;;;;;-1.99;63.11;101152.05;466925;113;922423;-69
2023/01/28 04:07:39;;;;;;;9.64;8.83;;;;;;;-1.96;63.17;101154.47;458051;114;923449;-70
2023/01/28 04:08:55;;;;;;;9.39;8.59;;;;;;;-1.94;63.18;101155.22;469436;112;922594;-70
2023/01/28 04:10:00;;;;;;;9.73;8.97;;;;;;;-1.93;63.09;101155.07;471329;112;923679;-69
2023/01/28 04:11:18;;;;;;;10.60;9.60;;;;;;;-1.92;63.06;101154.11;472956;112;922535;-68
2023/01/28 04:12:23;;;;;;;10.11;9.22;;;;;;;-1.90;63.09;101152.17;473766;112;922535;-70
2023/01/28 04:13:27;;;;;;;11.97;9.30;;;;;;;-1.90;63.13;101151.32;473844;112;922456;-70
2023/01/28 04:14:31;;;;;;;10.68;9.65;;;;;;;-1.89;63.13;101151.20;469698;112;922634;-69
2023/01/28 04:15:42;;;;;;;9.97;9.12;;;;;;;-1.87;63.18;101159.08;464913;114;922503;-69
2023/01/28 04:16:45;;;;;;;9.58;8.69;;;;;;;-1.85;63.18;101157.15;465438;112;922496;-69
2023/01/28 04:17:48;;;;;;;9.53;8.74;;;;;;;-1.84;63.26;101153.52;465440;114;930572;-69
2023/01/28 04:18:57;;;;;;;10.37;9.43;;;;;;;-1.83;63.17;101157.89;472512;112;922555;-69
2023/01/28 04:20:00;;;;;;;10.14;9.34;;;;;;;-1.82;63.16;101159.59;473147;112;922517;-69
2023/01/28 04:21:04;;;;;;;10.68;9.72;;;;;;;-1.81;63.14;101156.78;469981;112;930488;-69
2023/01/28 04:22:10;;;;;;;10.36;9.49;;;;;;;-1.80;63.25;101152.29;469985;113;922561;-69
2023/01/28 04:23:14;;;;;;;10.41;9.53;;;;;;;-1.80;63.09;101154.96;456293;115;923090;-69
2023/01/28 04:24:17;;;;;;;11.91;10.56;;;;;;;-1.81;63.21;101154.11;455862;114;922565;-70
2023/01/28 04:25:20;;;;;;;10.42;9.53;;;;;;;-1.81;63.14;101156.78;468903;112;922657;-69
2023/01/28 04:26:24;;;;;;;10.93;9.82;;;;;;;-1.79;63.29;101156.67;467818;112;923324;-68
2023/01/28 04:27:27;;;;;;;10.69;9.84;;;;;;;-1.79;63.22;101160.20;463946;114;923254;-69
2023/01/28 04:28:30;;;;;;;10.82;9.29;;;;;;;-1.76;63.22;101167.95;465592;112;930485;-70
2023/01/28 04:29:34;;;;;;;11.62;10.72;;;;;;;-1.73;63.31;101166.88;466216;112;922466;-68
2023/01/28 04:30:39;;;;;;;11.56;10.53;;;;;;;-1.71;63.41;101156.92;462254;112;930073;-70
2023/01/28 04:32:00;;;;;;;11.26;10.29;;;;;;;-1.70;63.34;101158.59;465397;114;923108;-70
2023/01/28 04:33:18;;;;;;;10.83;9.96;;;;;;;-1.68;63.45;101170.03;466024;112;922553;-70
2023/01/28 04:34:23;;;;;;;11.23;10.14;;;;;;;-1.67;63.48;101163.72;467580;112;922839;-69
2023/01/28 04:35:27;;;;;;;11.13;10.24;;;;;;;-1.66;63.48;101164.58;470675;112;922499;-70
2023/01/28 04:36:44;;;;;;;11.83;10.04;;;;;;;-1.64;63.49;101162.61;471034;111;922395;-69
2023/01/28 04:37:55;;;;;;;12.21;11.19;;;;;;;-1.62;63.57;101164.20;473359;111;922813;-69
2023/01/28 04:39:03;;;;;;;10.90;10.04;;;;;;;-1.61;63.58;101163.23;469161;112;922541;-71
2023/01/28 04:40:14;;;;;;;11.54;10.53;;;;;;;-1.60;63.52;101162.27;469876;112;922997;-69
2023/01/28 04:41:28;;;;;;;10.78;9.91;;;;;;;-1.59;63.67;101155.06;464396;114;922828;-69
2023/01/28 04:42:33;;;;;;;10.27;9.44;;;;;;;-1.59;63.60;101150.57;464901;114;922488;-69
2023/01/28 04:43:40;;;;;;;9.83;9.10;;;;;;;-1.60;63.58;101148.90;464756;112;922841;-68
2023/01/28 04:44:48;;;;;;;9.11;8.36;;;;;;;-1.58;63.71;101154.95;456506;115;923102;-69
2023/01/28 04:45:58;;;;;;;10.27;9.49;;;;;;;-1.46;63.78;101148.63;473999;110;947209;-70
2023/01/28 04:47:09;;;;;;;;;;;;;;;-1.55;63.80;101152.05;448931;114;922390;-70
2023/01/28 04:48:17;;;;;;;10.61;9.78;;;;;;;-1.55;63.89;101152.05;458324;113;922223;-69
2023/01/28 04:49:22;;;;;;;10.08;8.48;;;;;;;-1.55;63.86;101154.72;450294;115;922514;-69
2023/01/28 04:50:45;;;;;;;9.71;8.92;;;;;;;-1.55;64.04;101157.39;448565;118;922566;-70
2023/01/28 04:51:50;;;;;;;9.74;8.72;;;;;;;-1.54;64.00;101155.55;448278;118;922857;-70
2023/01/28 04:52:57;;;;;;;10.01;9.16;;;;;;;-1.53;64.07;101159.92;448908;118;923100;-70
2023/01/28 04:54:02;;;;;;;9.78;8.94;;;;;;;-1.52;64.06;101158.95;449069;117;922505;-69
2023/01/28 04:55:08;;;;;;;9.86;9.10;;;;;;;-1.53;64.08;101157.25;455096;114;922564;-70
2023/01/28 04:56:12;;;;;;;9.47;8.66;;;;;;;-1.53;64.04;101155.43;457475;116;922441;-70
2023/01/28 04:57:15;;;;;;;10.66;9.79;;;;;;;-1.51;64.04;101161.52;457438;115;922587;-69
2023/01/28 04:58:19;;;;;;;9.78;8.98;;;;;;;-1.49;64.18;101154.20;447442;118;922847;-70
2023/01/28 04:59:23;;;;;;;9.75;8.95;;;;;;;-1.47;64.10;101162.11;447884;116;922592;-70
2023/01/28 05:00:27;;;;;;;10.22;9.46;;;;;;;-1.46;64.13;101151.30;456387;115;922538;-70
2023/01/28 05:01:30;;;;;;;9.94;9.14;;;;;;;-1.44;64.23;101160.06;448869;118;930483;-70
2023/01/28 05:02:33;;;;;;;10.44;9.63;;;;;;;-1.42;64.13;101155.42;449004;117;922914;-70
2023/01/28 05:03:37;;;;;;;10.34;9.56;;;;;;;-1.42;64.14;101150.06;448142;116;922472;-70
2023/01/28 05:04:41;;;;;;;9.96;9.14;;;;;;;-1.41;64.15;101162.47;447963;117;922562;-71
2023/01/28 05:05:46;;;;;;;10.68;9.66;;;;;;;-1.39;64.19;101157.86;447892;116;922763;-70
2023/01/28 05:06:54;;;;;;;10.74;9.80;;;;;;;-1.37;64.30;101157.71;450684;116;922717;-70
2023/01/28 05:07:59;;;;;;;11.48;10.56;;;;;;;-1.35;64.28;101161.98;454296;115;922984;-71
2023/01/28 05:09:02;;;;;;;11.34;10.44;;;;;;;-1.33;64.25;101168.06;454393;116;922831;-70
2023/01/28 05:10:07;;;;;;;10.11;9.40;;;;;;;-1.31;64.32;101162.57;457513;115;922838;-70
2023/01/28 05:11:10;;;;;;;9.51;8.83;;;;;;;-1.31;64.24;101160.75;449649;118;922543;-69
2023/01/28 05:12:13;;;;;;;10.20;9.39;;;;;;;-1.31;64.34;101163.42;457462;116;922469;-69
2023/01/28 05:13:16;;;;;;;11.61;10.71;;;;;;;-1.31;64.35;101160.75;456984;114;922491;-71
2023/01/28 05:14:19;;;;;;;10.26;9.48;;;;;;;-1.32;64.42;101159.05;447710;118;922650;-70
2023/01/28 05:15:24;;;;;;;10.12;9.38;;;;;;;-1.31;64.31;101158.07;438336;120;922522;-70
2023/01/28 05:16:29;;;;;;;10.28;9.49;;;;;;;-1.32;64.42;101164.39;460864;115;922810;-70
2023/01/28 05:17:32;;;;;;;10.51;9.73;;;;;;;-1.32;64.48;101163.53;459523;115;922406;-69
2023/01/28 05:18:35;;;;;;;11.21;10.31;;;;;;;-1.33;64.53;101162.72;457605;114;922929;-69
2023/01/28 05:19:45;;;;;;;10.06;9.28;;;;;;;-1.33;64.60;101161.86;458637;115;922701;-70
2023/01/28 05:20:50;;;;;;;9.43;8.67;;;;;;;-1.34;64.60;101166.36;455693;115;922563;-69
2023/01/28 05:21:53;;;;;;;11.02;9.29;;;;;;;-1.33;64.62;101161.86;454392;115;923197;-70
2023/01/28 05:23:01;;;;;;;10.69;8.77;;;;;;;-1.32;64.62;101164.39;452803;114;922484;-70
2023/01/28 05:24:06;;;;;;;9.45;8.65;;;;;;;-1.30;64.64;101161.60;452553;116;922476;-70
2023/01/28 05:25:09;;;;;;;9.73;8.93;;;;;;;-1.29;64.77;101166.84;456314;115;922944;-70
2023/01/28 05:26:13;;;;;;;9.28;8.44;;;;;;;-1.29;64.74;101164.16;455553;115;930532;-69
2023/01/28 05:27:16;;;;;;;9.27;8.58;;;;;;;-1.26;64.64;101168.39;454088;115;922606;-69
2023/01/28 05:28:19;;;;;;;9.10;8.40;;;;;;;-1.26;64.59;101161.22;461312;115;922520;-69
2023/01/28 05:29:22;;;;;;;8.60;7.98;;;;;;;-1.27;64.68;101167.54;454530;115;922441;-70
2023/01/28 05:30:25;;;;;;;8.86;8.16;;;;;;;-1.27;64.66;101159.52;457353;115;922505;-70
2023/01/28 05:31:29;;;;;;;8.56;7.86;;;;;;;-1.26;64.52;101166.57;457293;115;922466;-70
2023/01/28 05:32:32;;;;;;;8.79;8.05;;;;;;;-1.27;64.58;101164.86;457169;116;922490;-71
2023/01/28 05:33:35;;;;;;;8.64;7.91;;;;;;;-1.28;64.60;101171.22;458618;115;922544;-70